Time;durP1;ratioP1;P1;durP2;ratioP2;P2;SDS_P1;SDS_P2;PMS_P1;PMS_P2;Temp;Humidity;BMP_temperature;BMP_pressure;BME280_temperature;BME280_humidity;BME280_pressure;Samples;Min_cycle;Max_cycle;Signal;HPM_P1;HPM_P2
2023/06/17 00:01:33;;;;;;;;;23.00;22.25;;;;;;;;5017861;28;51166;-64
2023/06/17 00:03:58;;;;;;;;;19.25;18.25;;;;;;;;5019534;28;51084;-64
2023/06/17 00:06:24;;;;;;;;;21.00;21.00;;;;;;;;5019823;28;51060;-65
2023/06/17 00:08:50;;;;;;;;;21.00;20.00;;;;;;;;5019688;28;51182;-65
2023/06/17 00:11:15;;;;;;;;;21.75;21.75;;;;;;;;5024274;28;51004;-66
2023/06/17 00:13:41;;;;;;;;;22.50;21.25;;;;;;;;5015687;28;52283;-65
2023/06/17 00:16:06;;;;;;;;;20.25;20.25;;;;;;;;5018993;28;51252;-64
2023/06/17 00:18:32;;;;;;;;;19.50;18.50;;;;;;;;5028230;28;52791;-64
2023/06/17 00:20:57;;;;;;;;;21.25;21.00;;;;;;;;5023845;28;51736;-64
2023/06/17 00:23:23;;;;;;;;;22.00;21.50;;;;;;;;5029143;28;51100;-64
2023/06/17 00:25:48;;;;;;;;;21.50;21.25;;;;;;;;5030096;28;51194;-64
2023/06/17 00:28:14;;;;;;;;;18.00;18.00;;;;;;;;5026457;28;52902;-64
2023/06/17 00:30:39;;;;;;;;;18.75;17.75;;;;;;;;5024139;28;51011;-64
2023/06/17 00:33:04;;;;;;;;;19.00;18.00;;;;;;;;5018845;28;51051;-65
2023/06/17 00:35:29;;;;;;;;;19.25;19.25;;;;;;;;5029202;28;51647;-64
2023/06/17 00:37:55;;;;;;;;;15.00;15.00;;;;;;;;5029396;28;52812;-64
2023/06/17 00:40:20;;;;;;;;;20.50;20.50;;;;;;;;5025320;28;51139;-64
2023/06/17 00:42:45;;;;;;;;;21.25;20.25;;;;;;;;5026422;28;51050;-65
2023/06/17 00:45:10;;;;;;;;;19.50;19.50;;;;;;;;5025719;28;51092;-67
2023/06/17 00:47:38;;;;;;;;;20.00;19.25;;;;;;;;5018666;28;51093;-65
2023/06/17 00:50:06;;;;;;;;;20.50;20.50;;;;;;;;5021470;28;51045;-64
2023/06/17 00:52:32;;;;;;;;;22.25;21.25;;;;;;;;5015220;28;51275;-65
2023/06/17 00:54:57;;;;;;;;;19.25;19.25;;;;;;;;5017073;28;51204;-65
2023/06/17 00:57:23;;;;;;;;;21.50;20.75;;;;;;;;5021512;28;52432;-64
2023/06/17 00:59:48;;;;;;;;;22.50;21.75;;;;;;;;5022232;28;51187;-65
2023/06/17 01:02:13;;;;;;;;;19.25;19.25;;;;;;;;5029377;28;51056;-65
2023/06/17 01:04:43;;;;;;;;;19.50;19.50;;;;;;;;5014628;28;51569;-65
2023/06/17 01:07:16;;;;;;;;;19.75;19.00;;;;;;;;5017102;28;52429;-65
2023/06/17 01:09:44;;;;;;;;;18.00;18.00;;;;;;;;5017465;28;51196;-64
2023/06/17 01:12:12;;;;;;;;;18.50;18.50;;;;;;;;5012681;28;51275;-64
2023/06/17 01:14:40;;;;;;;;;19.00;19.00;;;;;;;;5016339;28;51184;-65
2023/06/17 01:17:12;;;;;;;;;19.25;18.50;;;;;;;;5017143;28;52725;-64
2023/06/17 01:19:38;;;;;;;;;19.75;19.00;;;;;;;;5021470;28;51142;-65
2023/06/17 01:22:06;;;;;;;;;19.25;19.25;;;;;;;;5014908;28;52134;-64
2023/06/17 01:24:33;;;;;;;;;21.00;18.75;;;;;;;;5018893;28;52053;-64
2023/06/17 01:27:00;;;;;;;;;20.25;19.50;;;;;;;;5013825;28;51166;-64
2023/06/17 01:29:26;;;;;;;;;21.25;20.25;;;;;;;;5012297;28;51058;-65
2023/06/17 01:31:52;;;;;;;;;21.75;21.75;;;;;;;;5013736;28;51433;-65
2023/06/17 01:34:19;;;;;;;;;18.00;18.00;;;;;;;;5017098;28;51246;-65
2023/06/17 01:36:47;;;;;;;;;20.50;20.00;;;;;;;;5012447;28;52367;-65
2023/06/17 01:39:15;;;;;;;;;17.75;17.75;;;;;;;;5014867;28;51134;-64
2023/06/17 01:41:42;;;;;;;;;21.00;19.75;;;;;;;;5017382;28;51158;-65
2023/06/17 01:44:08;;;;;;;;;18.00;17.50;;;;;;;;5015558;28;51265;-63
2023/06/17 01:46:34;;;;;;;;;21.25;21.25;;;;;;;;5012732;28;51210;-64
2023/06/17 01:49:00;;;;;;;;;20.75;20.25;;;;;;;;5016298;28;51257;-64
2023/06/17 01:51:25;;;;;;;;;18.75;17.75;;;;;;;;5016185;28;51323;-64
2023/06/17 01:53:50;;;;;;;;;20.00;19.00;;;;;;;;5012044;28;51163;-64
2023/06/17 01:56:16;;;;;;;;;20.75;19.25;;;;;;;;5015815;28;52887;-64
2023/06/17 01:58:41;;;;;;;;;18.00;17.25;;;;;;;;5030978;28;51003;-64
2023/06/17 02:01:06;;;;;;;;;19.50;19.00;;;;;;;;5018860;28;51275;-63
2023/06/17 02:03:32;;;;;;;;;21.50;20.75;;;;;;;;5030747;28;51052;-63
2023/06/17 02:05:57;;;;;;;;;18.50;18.50;;;;;;;;5020846;28;52343;-64
2023/06/17 02:08:23;;;;;;;;;21.75;20.25;;;;;;;;5033775;28;51088;-64
2023/06/17 02:10:48;;;;;;;;;19.50;19.50;;;;;;;;5033973;28;51294;-63
2023/06/17 02:13:13;;;;;;;;;19.25;19.25;;;;;;;;5015684;28;51125;-63
2023/06/17 02:15:42;;;;;;;;;21.25;20.25;;;;;;;;5023862;28;51167;-65
2023/06/17 02:18:07;;;;;;;;;17.50;17.50;;;;;;;;5034855;28;51053;-63
2023/06/17 02:20:33;;;;;;;;;20.50;20.25;;;;;;;;5018886;28;51052;-65
2023/06/17 02:22:58;;;;;;;;;19.00;18.25;;;;;;;;5030899;28;51468;-64
2023/06/17 02:25:23;;;;;;;;;20.00;18.75;;;;;;;;5028356;28;51039;-63
2023/06/17 02:27:48;;;;;;;;;18.75;18.75;;;;;;;;5033463;28;51096;-66
2023/06/17 02:30:14;;;;;;;;;21.50;20.50;;;;;;;;5034472;28;51049;-66
2023/06/17 02:32:39;;;;;;;;;20.25;19.75;;;;;;;;5034072;28;51267;-66
2023/06/17 02:35:04;;;;;;;;;19.50;18.75;;;;;;;;5028141;28;53728;-66
2023/06/17 02:37:30;;;;;;;;;21.75;21.25;;;;;;;;5029732;28;51135;-65
2023/06/17 02:39:55;;;;;;;;;20.00;19.25;;;;;;;;5028361;28;51095;-64
2023/06/17 02:42:20;;;;;;;;;20.75;20.50;;;;;;;;5017397;28;51186;-64
2023/06/17 02:44:46;;;;;;;;;21.50;20.50;;;;;;;;5013184;28;52735;-65
2023/06/17 02:47:11;;;;;;;;;20.25;19.50;;;;;;;;5013381;28;50914;-65
2023/06/17 02:49:36;;;;;;;;;20.50;20.00;;;;;;;;5029232;28;51266;-65
2023/06/17 02:52:01;;;;;;;;;18.25;18.25;;;;;;;;5021551;28;52501;-64
2023/06/17 02:54:27;;;;;;;;;21.50;20.75;;;;;;;;5024908;28;52868;-66
2023/06/17 02:56:52;;;;;;;;;19.50;18.75;;;;;;;;5014946;28;50946;-65
2023/06/17 02:59:18;;;;;;;;;18.25;17.75;;;;;;;;5032347;28;51132;-65
2023/06/17 03:01:43;;;;;;;;;18.50;17.75;;;;;;;;5030606;28;51312;-65
2023/06/17 03:04:10;;;;;;;;;19.00;19.00;;;;;;;;5014807;28;51920;-66
2023/06/17 03:06:36;;;;;;;;;18.25;17.75;;;;;;;;5014585;28;50980;-64
2023/06/17 03:09:03;;;;;;;;;19.50;19.00;;;;;;;;5022282;28;51152;-64
2023/06/17 03:11:28;;;;;;;;;21.75;19.50;;;;;;;;5027094;28;51802;-64
2023/06/17 03:13:54;;;;;;;;;22.75;21.75;;;;;;;;5026028;28;51750;-64
2023/06/17 03:16:19;;;;;;;;;20.25;20.25;;;;;;;;5014183;28;51020;-64
2023/06/17 03:18:45;;;;;;;;;20.00;20.00;;;;;;;;5013241;28;50968;-64
2023/06/17 03:21:10;;;;;;;;;19.50;19.00;;;;;;;;5025755;28;51151;-65
2023/06/17 03:23:35;;;;;;;;;20.75;20.00;;;;;;;;5033848;28;51931;-65
2023/06/17 03:26:00;;;;;;;;;22.50;21.75;;;;;;;;5032518;28;51044;-65
2023/06/17 03:28:25;;;;;;;;;19.50;19.50;;;;;;;;5030345;28;51045;-66
2023/06/17 03:30:52;;;;;;;;;21.00;20.50;;;;;;;;5026320;28;51149;-65
2023/06/17 03:33:17;;;;;;;;;19.75;19.25;;;;;;;;5020330;28;50961;-65
2023/06/17 03:35:42;;;;;;;;;20.75;20.75;;;;;;;;5022092;28;51387;-64
2023/06/17 03:38:08;;;;;;;;;20.25;20.25;;;;;;;;5013506;28;51178;-64
2023/06/17 03:40:33;;;;;;;;;21.00;21.00;;;;;;;;5030588;28;51031;-64
2023/06/17 03:42:58;;;;;;;;;19.75;18.75;;;;;;;;5029536;28;51879;-67
2023/06/17 03:45:24;;;;;;;;;19.50;19.50;;;;;;;;5013655;28;50874;-66
2023/06/17 03:47:49;;;;;;;;;18.00;17.75;;;;;;;;5015002;28;51013;-67
2023/06/17 03:50:14;;;;;;;;;19.75;19.75;;;;;;;;5025037;28;51269;-67
2023/06/17 03:52:40;;;;;;;;;25.50;25.00;;;;;;;;5027923;28;51905;-66
2023/06/17 03:55:05;;;;;;;;;25.00;23.75;;;;;;;;5013878;28;51073;-65
2023/06/17 03:57:30;;;;;;;;;19.75;19.75;;;;;;;;5024852;28;52637;-66
2023/06/17 03:59:56;;;;;;;;;19.50;19.25;;;;;;;;5017378;28;51076;-67
2023/06/17 04:02:21;;;;;;;;;20.75;20.25;;;;;;;;5020750;28;51087;-67
2023/06/17 04:04:46;;;;;;;;;16.25;15.75;;;;;;;;5021527;28;51116;-67
2023/06/17 04:07:11;;;;;;;;;17.25;17.25;;;;;;;;5022029;28;51500;-67
2023/06/17 04:09:36;;;;;;;;;22.25;21.25;;;;;;;;5030299;28;51288;-67
2023/06/17 04:12:02;;;;;;;;;19.00;18.75;;;;;;;;5023414;28;52786;-67
2023/06/17 04:14:27;;;;;;;;;20.25;19.25;;;;;;;;5018933;28;51061;-66
2023/06/17 04:16:53;;;;;;;;;18.25;18.25;;;;;;;;5022475;28;51222;-67
2023/06/17 04:19:18;;;;;;;;;20.50;19.50;;;;;;;;5027636;28;51425;-68
2023/06/17 04:21:44;;;;;;;;;22.75;22.25;;;;;;;;5020198;28;51822;-67
2023/06/17 04:24:09;;;;;;;;;22.00;22.00;;;;;;;;5026375;28;51254;-67
2023/06/17 04:26:34;;;;;;;;;19.00;18.75;;;;;;;;5026385;28;52451;-67
2023/06/17 04:29:03;;;;;;;;;19.50;19.00;;;;;;;;5027051;28;51147;-66
2023/06/17 04:31:28;;;;;;;;;22.25;20.25;;;;;;;;5026815;28;51691;-66
2023/06/17 04:33:54;;;;;;;;;21.00;20.25;;;;;;;;5015508;28;51143;-67
2023/06/17 04:36:20;;;;;;;;;21.25;20.25;;;;;;;;5026282;28;51219;-67
2023/06/17 04:38:47;;;;;;;;;19.50;19.50;;;;;;;;5021637;28;51117;-67
2023/06/17 04:41:12;;;;;;;;;19.00;19.00;;;;;;;;5024176;28;51694;-67
2023/06/17 04:43:38;;;;;;;;;22.75;21.00;;;;;;;;5026327;28;51329;-67
2023/06/17 04:46:03;;;;;;;;;20.00;20.00;;;;;;;;5008324;28;52806;-68
2023/06/17 04:48:28;;;;;;;;;20.50;20.50;;;;;;;;5025927;28;51159;-67
2023/06/17 04:50:57;;;;;;;;;19.50;18.25;;;;;;;;5024683;28;51140;-67
2023/06/17 04:53:23;;;;;;;;;18.00;18.00;;;;;;;;5017220;28;51051;-67
2023/06/17 04:55:48;;;;;;;;;20.50;20.50;;;;;;;;5018491;28;51220;-67
2023/06/17 04:58:13;;;;;;;;;20.25;19.75;;;;;;;;5029671;28;51269;-67
2023/06/17 05:00:38;;;;;;;;;22.00;21.00;;;;;;;;5018030;28;51886;-66
2023/06/17 05:03:04;;;;;;;;;20.50;19.75;;;;;;;;5028899;28;51092;-66
2023/06/17 05:05:29;;;;;;;;;21.25;20.75;;;;;;;;5031577;28;50921;-67
2023/06/17 05:07:54;;;;;;;;;19.25;19.25;;;;;;;;5020009;28;51091;-67
2023/06/17 05:10:20;;;;;;;;;19.50;18.50;;;;;;;;5021955;28;51207;-66
2023/06/17 05:12:45;;;;;;;;;17.00;17.00;;;;;;;;5026008;28;51044;-68
2023/06/17 05:15:10;;;;;;;;;19.25;18.75;;;;;;;;5014153;28;52340;-65
2023/06/17 05:17:35;;;;;;;;;20.00;19.50;;;;;;;;5026408;28;51182;-66
2023/06/17 05:20:00;;;;;;;;;18.00;17.75;;;;;;;;5023065;28;51886;-67
2023/06/17 05:22:26;;;;;;;;;20.00;20.00;;;;;;;;5025937;28;51183;-67
2023/06/17 05:24:51;;;;;;;;;18.25;18.25;;;;;;;;5019975;28;51170;-67
2023/06/17 05:27:16;;;;;;;;;19.25;18.25;;;;;;;;5024099;28;51279;-68
2023/06/17 05:29:41;;;;;;;;;19.25;19.00;;;;;;;;5018908;28;51350;-67
2023/06/17 05:32:07;;;;;;;;;17.75;17.25;;;;;;;;5019837;28;51124;-67
2023/06/17 05:34:32;;;;;;;;;16.50;16.25;;;;;;;;5015097;28;53616;-67
2023/06/17 05:36:57;;;;;;;;;19.75;19.75;;;;;;;;5031356;28;51071;-67
2023/06/17 05:39:22;;;;;;;;;21.00;20.00;;;;;;;;5028687;28;51146;-67
2023/06/17 05:41:47;;;;;;;;;20.75;19.75;;;;;;;;5013226;28;52481;-66
2023/06/17 05:44:13;;;;;;;;;16.00;16.00;;;;;;;;5027235;28;51261;-66
2023/06/17 05:46:38;;;;;;;;;16.50;16.25;;;;;;;;5023450;28;51203;-67
2023/06/17 05:49:03;;;;;;;;;17.50;16.50;;;;;;;;5024637;28;51889;-67
2023/06/17 05:51:28;;;;;;;;;19.00;18.00;;;;;;;;5040699;28;51532;-66
2023/06/17 05:53:53;;;;;;;;;18.50;18.00;;;;;;;;5025830;28;51143;-66
2023/06/17 05:56:19;;;;;;;;;20.50;20.50;;;;;;;;5021100;28;51315;-67
2023/06/17 05:58:44;;;;;;;;;20.50;20.00;;;;;;;;5030948;28;53925;-65
2023/06/17 06:01:10;;;;;;;;;18.50;18.00;;;;;;;;5015727;28;51277;-67
2023/06/17 06:03:35;;;;;;;;;17.00;17.00;;;;;;;;5016967;28;51147;-66
2023/06/17 06:06:00;;;;;;;;;19.00;18.50;;;;;;;;5020615;28;51228;-67
2023/06/17 06:08:25;;;;;;;;;16.25;16.25;;;;;;;;5020320;28;51233;-66
2023/06/17 06:10:50;;;;;;;;;18.75;18.00;;;;;;;;5019035;28;51753;-65
2023/06/17 06:13:16;;;;;;;;;19.50;19.00;;;;;;;;5032556;28;51105;-66
2023/06/17 06:15:41;;;;;;;;;17.25;17.25;;;;;;;;5025959;28;51529;-65
2023/06/17 06:18:06;;;;;;;;;18.75;18.00;;;;;;;;5030368;28;51739;-66
2023/06/17 06:20:31;;;;;;;;;18.00;17.00;;;;;;;;5025215;28;51131;-66
2023/06/17 06:22:57;;;;;;;;;18.00;18.00;;;;;;;;5023106;28;51976;-66
2023/06/17 06:25:23;;;;;;;;;16.50;16.50;;;;;;;;5026272;28;51067;-66
2023/06/17 06:27:49;;;;;;;;;19.75;18.00;;;;;;;;5017835;28;54011;-66
2023/06/17 06:30:15;;;;;;;;;18.25;18.25;;;;;;;;5019358;28;51112;-66
2023/06/17 06:32:40;;;;;;;;;17.75;17.00;;;;;;;;5028399;28;52031;-66
2023/06/17 06:35:05;;;;;;;;;19.75;19.25;;;;;;;;5027083;28;51550;-66
2023/06/17 06:37:31;;;;;;;;;18.25;18.00;;;;;;;;5027961;28;51679;-66
2023/06/17 06:39:56;;;;;;;;;18.75;17.25;;;;;;;;5031663;28;51127;-66
2023/06/17 06:42:21;;;;;;;;;17.00;17.00;;;;;;;;5031644;28;51108;-65
2023/06/17 06:44:48;;;;;;;;;17.00;17.00;;;;;;;;5031824;28;51435;-65
2023/06/17 06:47:13;;;;;;;;;18.00;18.00;;;;;;;;5034172;28;52193;-67
2023/06/17 06:49:38;;;;;;;;;18.75;18.50;;;;;;;;5027650;28;51047;-66
2023/06/17 06:52:03;;;;;;;;;16.00;16.00;;;;;;;;5028315;28;51273;-67
2023/06/17 06:54:29;;;;;;;;;18.50;17.00;;;;;;;;5013602;28;51173;-65
2023/06/17 06:56:55;;;;;;;;;17.00;17.00;;;;;;;;5031992;28;52815;-66
2023/06/17 06:59:20;;;;;;;;;16.75;16.25;;;;;;;;5028945;28;51199;-66
2023/06/17 07:01:46;;;;;;;;;17.00;17.00;;;;;;;;5022016;28;51030;-67
2023/06/17 07:04:11;;;;;;;;;17.00;17.00;;;;;;;;5031454;28;50959;-66
2023/06/17 07:06:36;;;;;;;;;17.50;16.75;;;;;;;;5027877;28;52490;-65
2023/06/17 07:09:01;;;;;;;;;15.75;15.75;;;;;;;;5027791;28;51142;-66
2023/06/17 07:11:27;;;;;;;;;16.00;16.00;;;;;;;;5029939;28;51366;-65
2023/06/17 07:13:52;;;;;;;;;16.75;16.75;;;;;;;;5030835;28;51060;-66
2023/06/17 07:16:18;;;;;;;;;17.00;17.00;;;;;;;;5028435;28;54097;-67
2023/06/17 07:18:43;;;;;;;;;14.75;14.75;;;;;;;;5031779;28;51276;-66
2023/06/17 07:21:10;;;;;;;;;16.00;15.75;;;;;;;;5029843;28;51333;-65
2023/06/17 07:23:35;;;;;;;;;14.50;14.00;;;;;;;;5025989;28;51151;-67
2023/06/17 07:26:00;;;;;;;;;15.75;14.75;;;;;;;;5028968;28;51164;-66
2023/06/17 07:28:25;;;;;;;;;18.75;18.00;;;;;;;;5021069;28;51462;-67
2023/06/17 07:30:51;;;;;;;;;16.00;15.50;;;;;;;;5023784;28;51191;-66
2023/06/17 07:33:16;;;;;;;;;16.00;15.75;;;;;;;;5014035;28;51074;-66
2023/06/17 07:35:42;;;;;;;;;19.25;18.00;;;;;;;;5024789;28;51962;-65
2023/06/17 07:38:07;;;;;;;;;17.00;17.00;;;;;;;;5027650;28;51074;-66
2023/06/17 07:40:32;;;;;;;;;18.00;18.00;;;;;;;;5033691;28;50847;-66
2023/06/17 07:42:57;;;;;;;;;16.75;16.75;;;;;;;;5023271;28;51231;-67
2023/06/17 07:45:22;;;;;;;;;18.00;17.25;;;;;;;;5028187;28;52988;-67
2023/06/17 07:47:48;;;;;;;;;20.25;19.00;;;;;;;;5023235;28;51207;-65
2023/06/17 07:50:13;;;;;;;;;17.50;17.25;;;;;;;;5017535;28;51051;-66
2023/06/17 07:52:38;;;;;;;;;18.00;17.00;;;;;;;;5028282;28;51065;-66
2023/06/17 07:55:04;;;;;;;;;20.75;19.75;;;;;;;;5022173;28;52897;-68
2023/06/17 07:57:30;;;;;;;;;19.25;19.00;;;;;;;;5022351;28;51093;-66
2023/06/17 07:59:55;;;;;;;;;16.75;16.50;;;;;;;;5018999;28;51049;-66
2023/06/17 08:02:21;;;;;;;;;16.25;15.75;;;;;;;;5019557;28;51317;-67
2023/06/17 08:04:47;;;;;;;;;18.75;18.25;;;;;;;;5022727;28;51640;-65
2023/06/17 08:07:13;;;;;;;;;17.50;17.00;;;;;;;;5032678;28;51056;-65
2023/06/17 08:09:38;;;;;;;;;19.50;18.50;;;;;;;;5023306;28;51143;-65
2023/06/17 08:12:03;;;;;;;;;19.75;19.25;;;;;;;;5031145;28;51204;-66
2023/06/17 08:14:28;;;;;;;;;16.25;16.25;;;;;;;;5020331;28;52447;-65
2023/06/17 08:16:53;;;;;;;;;18.50;18.50;;;;;;;;5013755;28;50947;-66
2023/06/17 08:19:19;;;;;;;;;19.00;18.00;;;;;;;;5025720;28;51445;-66
2023/06/17 08:21:47;;;;;;;;;17.75;17.50;;;;;;;;5017339;28;51273;-65
2023/06/17 08:24:19;;;;;;;;;20.25;20.25;;;;;;;;5024509;28;50895;-65
2023/06/17 08:26:44;;;;;;;;;17.50;17.50;;;;;;;;5023924;28;51073;-65
2023/06/17 08:29:10;;;;;;;;;22.25;20.25;;;;;;;;5018403;28;51227;-66
2023/06/17 08:31:35;;;;;;;;;20.25;18.75;;;;;;;;5018209;28;51101;-66
2023/06/17 08:34:01;;;;;;;;;21.25;19.25;;;;;;;;5016459;28;52412;-65
2023/06/17 08:36:26;;;;;;;;;19.75;16.50;;;;;;;;5015210;28;51128;-66
2023/06/17 08:38:51;;;;;;;;;17.25;17.25;;;;;;;;5022559;28;51097;-66
2023/06/17 08:41:17;;;;;;;;;18.00;16.75;;;;;;;;5015957;28;51197;-66
2023/06/17 08:43:43;;;;;;;;;18.00;17.25;;;;;;;;5014184;28;51077;-66
2023/06/17 08:46:08;;;;;;;;;18.00;18.00;;;;;;;;5020201;28;51143;-65
2023/06/17 08:48:35;;;;;;;;;13.75;13.75;;;;;;;;5026618;28;51136;-66
2023/06/17 08:51:00;;;;;;;;;14.50;14.50;;;;;;;;5020910;28;51337;-65
2023/06/17 08:53:26;;;;;;;;;16.75;15.75;;;;;;;;5017367;28;51884;-65
2023/06/17 08:55:51;;;;;;;;;15.50;15.50;;;;;;;;5023842;28;51131;-66
2023/06/17 08:58:16;;;;;;;;;17.25;17.00;;;;;;;;5011214;28;50965;-64
2023/06/17 09:00:42;;;;;;;;;17.50;17.50;;;;;;;;5016910;28;51163;-63
2023/06/17 09:03:08;;;;;;;;;19.25;18.25;;;;;;;;5022261;28;52154;-63
2023/06/17 09:05:34;;;;;;;;;16.75;16.00;;;;;;;;5014950;28;51098;-62
2023/06/17 09:08:01;;;;;;;;;17.25;17.00;;;;;;;;5020924;28;51202;-63
2023/06/17 09:10:26;;;;;;;;;15.25;15.25;;;;;;;;5030325;28;50983;-64
2023/06/17 09:12:51;;;;;;;;;8.00;7.25;;;;;;;;5012780;28;51015;-64
2023/06/17 09:15:17;;;;;;;;;17.75;17.75;;;;;;;;5014925;28;51016;-66
2023/06/17 09:17:43;;;;;;;;;15.50;15.50;;;;;;;;5015148;28;50891;-66
2023/06/17 09:20:10;;;;;;;;;19.25;18.75;;;;;;;;5015616;28;52152;-66
2023/06/17 09:22:37;;;;;;;;;20.50;20.00;;;;;;;;5034695;28;52188;-65
2023/06/17 09:25:03;;;;;;;;;20.75;19.75;;;;;;;;5033465;28;51012;-65
2023/06/17 09:27:28;;;;;;;;;19.25;18.50;;;;;;;;5024258;28;51159;-65
2023/06/17 09:30:06;;;;;;;;;19.00;18.25;;;;;;;;5015410;28;50838;-65
2023/06/17 09:32:39;;;;;;;;;16.75;16.75;;;;;;;;5015427;28;51655;-65
2023/06/17 09:35:05;;;;;;;;;19.75;19.75;;;;;;;;5022363;28;51117;-66
2023/06/17 09:37:30;;;;;;;;;18.75;18.50;;;;;;;;5021903;28;51078;-65
2023/06/17 09:39:58;;;;;;;;;19.00;17.75;;;;;;;;5027827;28;51259;-66
2023/06/17 09:42:30;;;;;;;;;20.00;19.50;;;;;;;;5013389;28;52860;-66
2023/06/17 09:44:55;;;;;;;;;21.75;20.00;;;;;;;;5027124;28;51123;-66
2023/06/17 09:47:31;;;;;;;;;20.00;19.25;;;;;;;;5014018;28;50938;-66
2023/06/17 09:49:56;;;;;;;;;17.50;17.50;;;;;;;;5028059;28;52116;-66
2023/06/17 09:52:22;;;;;;;;;19.75;19.75;;;;;;;;5026894;28;51684;-66
2023/06/17 09:54:47;;;;;;;;;19.00;19.00;;;;;;;;5014009;28;50890;-65
2023/06/17 09:57:17;;;;;;;;;22.00;19.25;;;;;;;;5014885;28;50940;-66
2023/06/17 09:59:43;;;;;;;;;20.00;20.00;;;;;;;;5025817;28;51063;-65
2023/06/17 10:02:09;;;;;;;;;18.50;17.75;;;;;;;;5014385;28;50892;-66
2023/06/17 10:04:34;;;;;;;;;19.75;19.75;;;;;;;;5014443;28;51057;-66
2023/06/17 10:07:01;;;;;;;;;17.75;17.25;;;;;;;;5014790;28;51409;-67
2023/06/17 10:09:26;;;;;;;;;21.25;21.25;;;;;;;;5023972;28;51249;-67
2023/06/17 10:11:53;;;;;;;;;19.25;18.00;;;;;;;;5014551;28;52193;-66
2023/06/17 10:14:21;;;;;;;;;21.75;21.75;;;;;;;;5026026;28;51001;-66
2023/06/17 10:16:48;;;;;;;;;19.25;18.50;;;;;;;;5030738;28;51163;-67
2023/06/17 10:19:16;;;;;;;;;18.25;18.25;;;;;;;;5029783;28;51310;-66
2023/06/17 10:21:45;;;;;;;;;21.50;21.50;;;;;;;;5015038;28;51086;-68
2023/06/17 10:24:11;;;;;;;;;20.75;19.00;;;;;;;;5012535;28;51088;-67
2023/06/17 10:26:36;;;;;;;;;20.25;19.50;;;;;;;;5017537;28;51144;-67
2023/06/17 10:29:06;;;;;;;;;19.50;19.50;;;;;;;;5014013;28;51078;-66
2023/06/17 10:31:32;;;;;;;;;20.25;19.25;;;;;;;;5016100;28;51075;-68
2023/06/17 10:34:01;;;;;;;;;18.00;18.00;;;;;;;;5032300;28;50995;-67
2023/06/17 10:36:26;;;;;;;;;23.00;21.00;;;;;;;;5033999;28;51008;-67
2023/06/17 10:38:53;;;;;;;;;22.75;22.75;;;;;;;;5034127;28;50962;-66
2023/06/17 10:41:19;;;;;;;;;23.00;22.00;;;;;;;;5033835;28;53128;-66
2023/06/17 10:43:44;;;;;;;;;22.25;21.75;;;;;;;;5014096;28;51623;-67
2023/06/17 10:46:09;;;;;;;;;25.00;24.00;;;;;;;;5013946;28;51104;-67
2023/06/17 10:48:35;;;;;;;;;23.25;23.25;;;;;;;;5015329;28;51388;-67
2023/06/17 10:51:00;;;;;;;;;18.00;18.00;;;;;;;;5030608;28;51528;-67
2023/06/17 10:53:29;;;;;;;;;21.20;21.20;;;;;;;;5028069;28;51587;-67
2023/06/17 10:55:56;;;;;;;;;21.00;21.00;;;;;;;;5025247;28;50945;-66
2023/06/17 10:58:21;;;;;;;;;22.50;22.50;;;;;;;;5032288;28;51405;-67
2023/06/17 11:00:56;;;;;;;;;22.50;22.50;;;;;;;;5031117;28;51257;-67
2023/06/17 11:03:22;;;;;;;;;23.00;22.50;;;;;;;;5029385;28;51149;-67
2023/06/17 11:05:50;;;;;;;;;22.00;21.75;;;;;;;;5024099;28;51052;-67
2023/06/17 11:08:15;;;;;;;;;22.25;21.00;;;;;;;;5025318;28;51383;-68
2023/06/17 11:10:40;;;;;;;;;19.75;19.00;;;;;;;;5021622;28;51034;-68
2023/06/17 11:13:06;;;;;;;;;26.25;23.75;;;;;;;;5024309;28;51025;-67
2023/06/17 11:15:31;;;;;;;;;21.75;21.75;;;;;;;;5013329;28;50804;-67
2023/06/17 11:18:00;;;;;;;;;23.00;22.00;;;;;;;;5024036;28;51379;-66
2023/06/17 11:20:25;;;;;;;;;23.50;23.50;;;;;;;;5032294;28;51842;-68
2023/06/17 11:22:50;;;;;;;;;19.00;19.00;;;;;;;;5021638;28;51068;-68
2023/06/17 11:25:18;;;;;;;;;19.75;19.75;;;;;;;;5026383;28;51162;-67
2023/06/17 11:27:44;;;;;;;;;19.75;19.75;;;;;;;;5022643;28;51444;-68
2023/06/17 11:30:09;;;;;;;;;37.25;31.25;;;;;;;;5018054;28;51777;-66
2023/06/17 11:32:34;;;;;;;;;23.25;23.00;;;;;;;;5022482;28;51171;-66
2023/06/17 11:35:00;;;;;;;;;26.50;26.50;;;;;;;;5018557;28;51113;-66
2023/06/17 11:37:25;;;;;;;;;23.00;22.00;;;;;;;;5024932;28;51124;-64
2023/06/17 11:39:55;;;;;;;;;21.75;21.75;;;;;;;;5014998;28;53595;-65
2023/06/17 11:42:20;;;;;;;;;22.50;22.50;;;;;;;;5025275;28;52654;-63
2023/06/17 11:44:47;;;;;;;;;20.00;19.50;;;;;;;;5026963;28;52443;-59
2023/06/17 11:47:12;;;;;;;;;20.00;20.00;;;;;;;;5024578;28;51263;-60
2023/06/17 11:49:40;;;;;;;;;22.75;22.50;;;;;;;;5020016;28;51269;-57
2023/06/17 11:52:08;;;;;;;;;22.25;22.25;;;;;;;;5023495;28;51127;-57
2023/06/17 11:54:34;;;;;;;;;21.25;20.50;;;;;;;;5023819;28;51227;-57
2023/06/17 11:56:59;;;;;;;;;19.50;18.50;;;;;;;;5019324;28;52587;-59
2023/06/17 11:59:25;;;;;;;;;19.75;19.00;;;;;;;;5028452;28;52247;-67
2023/06/17 12:01:51;;;;;;;;;22.00;20.75;;;;;;;;5028636;28;51084;-66
2023/06/17 12:04:17;;;;;;;;;21.50;20.50;;;;;;;;5012029;28;54039;-68
2023/06/17 12:06:42;;;;;;;;;21.50;20.75;;;;;;;;5022345;28;51424;-68
2023/06/17 12:09:08;;;;;;;;;21.25;20.50;;;;;;;;5026240;28;51838;-68
2023/06/17 12:11:37;;;;;;;;;23.25;22.75;;;;;;;;5021270;28;51124;-68
2023/06/17 12:14:10;;;;;;;;;23.50;22.00;;;;;;;;5029546;28;51048;-68
2023/06/17 12:16:36;;;;;;;;;17.00;17.00;;;;;;;;5028430;28;51082;-69
2023/06/17 12:19:03;;;;;;;;;18.00;18.00;;;;;;;;5025236;28;51174;-69
2023/06/17 12:21:29;;;;;;;;;22.25;22.25;;;;;;;;5023811;28;51079;-69
2023/06/17 12:23:54;;;;;;;;;31.00;29.50;;;;;;;;5028531;28;50982;-69
2023/06/17 12:26:20;;;;;;;;;21.75;21.75;;;;;;;;5028875;28;51038;-69
2023/06/17 12:28:45;;;;;;;;;22.00;22.00;;;;;;;;5021929;28;51203;-69
2023/06/17 12:31:11;;;;;;;;;21.50;21.25;;;;;;;;5028806;28;50915;-69
2023/06/17 12:33:38;;;;;;;;;23.25;22.00;;;;;;;;5023445;28;51199;-69
2023/06/17 12:36:04;;;;;;;;;18.75;18.00;;;;;;;;5032988;28;51369;-71
2023/06/17 12:38:29;;;;;;;;;20.50;20.00;;;;;;;;5023552;28;51213;-69
2023/06/17 12:40:55;;;;;;;;;19.25;18.50;;;;;;;;5023477;28;51071;-68
2023/06/17 12:43:20;;;;;;;;;20.00;20.00;;;;;;;;5030149;28;50956;-69
2023/06/17 12:45:45;;;;;;;;;20.75;19.25;;;;;;;;5027168;28;51006;-68
2023/06/17 12:48:11;;;;;;;;;19.75;19.75;;;;;;;;5023267;28;53425;-68
2023/06/17 12:50:36;;;;;;;;;20.75;20.75;;;;;;;;5025651;28;51005;-67
2023/06/17 12:53:01;;;;;;;;;22.00;22.00;;;;;;;;5027332;28;51109;-69
2023/06/17 12:55:26;;;;;;;;;23.25;23.25;;;;;;;;5028138;28;51482;-69
2023/06/17 12:57:51;;;;;;;;;23.00;22.25;;;;;;;;5026788;28;52331;-69
2023/06/17 13:00:18;;;;;;;;;21.50;20.75;;;;;;;;5025703;28;51125;-70
2023/06/17 13:02:44;;;;;;;;;24.50;24.50;;;;;;;;5028850;28;51149;-70
2023/06/17 13:05:09;;;;;;;;;22.50;22.50;;;;;;;;5009977;28;51438;-69
2023/06/17 13:07:35;;;;;;;;;23.00;22.25;;;;;;;;5014248;28;51944;-69
2023/06/17 13:10:00;;;;;;;;;1.50;0.50;;;;;;;;5021963;28;51212;-70
2023/06/17 13:12:25;;;;;;;;;22.75;22.25;;;;;;;;5024656;28;51009;-69
2023/06/17 13:14:50;;;;;;;;;25.50;25.00;;;;;;;;5023484;28;50903;-69
2023/06/17 13:17:16;;;;;;;;;23.75;21.75;;;;;;;;5030937;28;52048;-69
2023/06/17 13:19:42;;;;;;;;;17.50;17.50;;;;;;;;5031077;28;51128;-70
2023/06/17 13:22:07;;;;;;;;;25.00;23.00;;;;;;;;5031395;28;51111;-71
2023/06/17 13:24:33;;;;;;;;;24.00;24.00;;;;;;;;5031471;28;50978;-69
2023/06/17 13:26:58;;;;;;;;;22.75;22.75;;;;;;;;5029995;28;51688;-70
2023/06/17 13:29:23;;;;;;;;;22.50;22.50;;;;;;;;5013557;28;50972;-70
2023/06/17 13:31:48;;;;;;;;;26.25;25.00;;;;;;;;5011069;28;51393;-70
2023/06/17 13:34:14;;;;;;;;;22.00;21.00;;;;;;;;5018923;28;51326;-69
2023/06/17 13:36:42;;;;;;;;;23.00;21.75;;;;;;;;5030971;28;51562;-69
2023/06/17 13:39:08;;;;;;;;;20.00;20.00;;;;;;;;5030886;28;51064;-71
2023/06/17 13:41:33;;;;;;;;;22.00;21.50;;;;;;;;5031142;28;51025;-69
2023/06/17 13:43:59;;;;;;;;;22.00;22.00;;;;;;;;5022500;28;51938;-70
2023/06/17 13:46:24;;;;;;;;;17.50;17.50;;;;;;;;5025322;28;52082;-70
2023/06/17 13:48:50;;;;;;;;;17.75;17.75;;;;;;;;5019531;28;50933;-70
2023/06/17 13:51:16;;;;;;;;;16.75;16.00;;;;;;;;5029250;28;51338;-70
2023/06/17 13:53:41;;;;;;;;;20.00;19.75;;;;;;;;5028921;28;51055;-70
2023/06/17 13:56:06;;;;;;;;;17.50;17.50;;;;;;;;5030536;28;51685;-71
2023/06/17 13:58:32;;;;;;;;;18.75;18.75;;;;;;;;5023706;28;51089;-70
2023/06/17 14:00:57;;;;;;;;;17.00;16.75;;;;;;;;5011033;28;51581;-71
2023/06/17 14:03:22;;;;;;;;;21.00;21.00;;;;;;;;5013698;28;50972;-69
2023/06/17 14:05:47;;;;;;;;;19.50;19.50;;;;;;;;5022972;28;51969;-71
2023/06/17 14:08:13;;;;;;;;;18.50;17.75;;;;;;;;5033309;28;50997;-71